Time;durP1;ratioP1;P1;durP2;ratioP2;P2;SDS_P1;SDS_P2;PMS_P1;PMS_P2;Temp;Humidity;BMP_temperature;BMP_pressure;BME280_temperature;BME280_humidity;BME280_pressure;Samples;Min_cycle;Max_cycle;Signal;HPM_P1;HPM_P2
2023/05/21 00:00:14;;;;;;;5.18;4.07;;;14.80;99.90;;;;;;6215346;23;20095;-74
2023/05/21 00:02:41;;;;;;;4.25;3.45;;;14.80;99.90;;;;;;6214442;23;20012;-74
2023/05/21 00:05:12;;;;;;;4.75;3.97;;;14.80;99.90;;;;;;6213510;23;20013;-74
2023/05/21 00:07:38;;;;;;;3.95;3.30;;;14.70;99.90;;;;;;6214338;23;20103;-73
2023/05/21 00:10:05;;;;;;;3.85;3.30;;;14.70;99.90;;;;;;6214941;23;20070;-73
2023/05/21 00:12:31;;;;;;;5.55;4.57;;;14.70;99.90;;;;;;6214896;23;20012;-74
2023/05/21 00:14:57;;;;;;;6.32;3.78;;;14.70;99.90;;;;;;6215282;23;20016;-74
2023/05/21 00:17:22;;;;;;;5.10;4.20;;;14.70;99.90;;;;;;6215694;23;20068;-73
2023/05/21 00:19:49;;;;;;;6.10;4.25;;;14.70;99.90;;;;;;6215151;23;20012;-73
2023/05/21 00:22:15;;;;;;;4.10;3.70;;;14.70;99.90;;;;;;6214615;23;20027;-73
2023/05/21 00:24:41;;;;;;;4.60;3.88;;;14.70;99.90;;;;;;6214750;23;20063;-74
2023/05/21 00:27:06;;;;;;;4.45;3.88;;;14.70;99.90;;;;;;6214406;23;20430;-73
2023/05/21 00:29:32;;;;;;;6.90;3.45;;;14.60;99.90;;;;;;6215724;23;20024;-73
2023/05/21 00:31:58;;;;;;;4.20;3.80;;;14.60;99.90;;;;;;6214524;23;20016;-74
2023/05/21 00:34:23;;;;;;;5.43;3.90;;;14.60;99.90;;;;;;6214766;23;20019;-74
2023/05/21 00:36:49;;;;;;;4.93;3.53;;;14.60;99.90;;;;;;6214867;23;20318;-74
2023/05/21 00:39:14;;;;;;;7.03;3.97;;;14.60;99.90;;;;;;6215662;23;20021;-73
2023/05/21 00:41:41;;;;;;;5.38;3.97;;;14.60;99.90;;;;;;6213632;23;20013;-74
2023/05/21 00:44:08;;;;;;;5.20;3.60;;;14.50;99.90;;;;;;6215417;23;20023;-73
2023/05/21 00:46:34;;;;;;;4.72;3.95;;;14.50;99.90;;;;;;6213318;23;20464;-74
2023/05/21 00:49:00;;;;;;;5.40;3.70;;;14.50;99.90;;;;;;6215256;23;20023;-74
2023/05/21 00:51:29;;;;;;;4.40;4.00;;;14.50;99.90;;;;;;6214653;23;20024;-74
2023/05/21 00:53:56;;;;;;;4.53;3.92;;;14.50;99.90;;;;;;6214448;23;20021;-74
2023/05/21 00:56:23;;;;;;;4.13;3.70;;;14.50;99.90;;;;;;6213441;23;20391;-74
2023/05/21 00:58:50;;;;;;;5.18;3.80;;;14.50;99.90;;;;;;6211151;23;20353;-73
2023/05/21 01:01:17;;;;;;;5.20;3.70;;;14.50;99.90;;;;;;6210571;23;20025;-72
2023/05/21 01:03:43;;;;;;;4.60;4.05;;;14.50;99.90;;;;;;6211811;23;20349;-73
2023/05/21 01:06:10;;;;;;;5.15;4.18;;;14.50;99.90;;;;;;6211630;23;20013;-72
2023/05/21 01:08:37;;;;;;;4.73;4.10;;;14.40;99.90;;;;;;6215009;23;20044;-73
2023/05/21 01:11:04;;;;;;;5.35;3.72;;;14.40;99.90;;;;;;6213264;23;20017;-72
2023/05/21 01:13:31;;;;;;;4.53;4.00;;;14.40;99.90;;;;;;6214978;23;20071;-74
2023/05/21 01:15:58;;;;;;;5.38;3.78;;;14.40;99.90;;;;;;6215146;23;20013;-73
2023/05/21 01:18:24;;;;;;;4.72;4.05;;;14.40;99.90;;;;;;6213635;23;20020;-72
2023/05/21 01:20:51;;;;;;;6.22;4.75;;;14.40;99.90;;;;;;6212729;23;20016;-73
2023/05/21 01:23:17;;;;;;;6.85;4.13;;;14.40;99.90;;;;;;6186122;23;20098;-72
2023/05/21 01:25:43;;;;;;;5.18;4.53;;;14.40;99.90;;;;;;6215150;23;20016;-73
2023/05/21 01:28:09;;;;;;;5.53;3.75;;;14.40;99.90;;;;;;6214818;23;20016;-72
2023/05/21 01:30:37;;;;;;;5.75;4.55;;;14.40;99.90;;;;;;6215247;23;20012;-72
2023/05/21 01:33:05;;;;;;;;;;;14.40;99.90;;;;;;6215745;23;20024;-72
2023/05/21 01:35:33;;;;;;;4.60;4.20;;;14.40;99.90;;;;;;6214303;23;19923;-72
2023/05/21 01:38:31;;;;;;;6.10;4.10;;;14.30;99.90;;;;;;6214911;23;20013;-72
2023/05/21 01:41:04;;;;;;;4.70;4.20;;;14.40;99.90;;;;;;6188153;23;20066;-72
2023/05/21 01:43:35;;;;;;;4.82;4.22;;;14.30;99.90;;;;;;6215158;23;20013;-72
2023/05/21 01:46:03;;;;;;;5.13;4.05;;;14.30;99.90;;;;;;6214759;23;20013;-73
2023/05/21 01:48:29;;;;;;;5.97;4.55;;;14.30;99.90;;;;;;6215082;23;20016;-72
2023/05/21 01:50:58;;;;;;;5.72;4.55;;;14.30;99.90;;;;;;6214808;23;20009;-73
2023/05/21 01:53:24;;;;;;;6.45;4.68;;;14.20;99.90;;;;;;6213992;23;20052;-73
2023/05/21 01:55:50;;;;;;;6.35;3.92;;;14.20;99.90;;;;;;6215010;23;20055;-73
2023/05/21 01:58:16;;;;;;;5.15;4.65;;;14.20;99.90;;;;;;6214732;23;20047;-72
2023/05/21 02:00:44;;;;;;;4.97;4.53;;;14.10;99.90;;;;;;6215059;23;20013;-72
2023/05/21 02:03:10;;;;;;;6.03;4.47;;;14.10;99.90;;;;;;6188477;23;20024;-73
2023/05/21 02:05:35;;;;;;;5.65;4.60;;;14.10;99.90;;;;;;6214737;23;20046;-73
2023/05/21 02:08:01;;;;;;;6.40;4.55;;;14.00;99.90;;;;;;6214572;23;20015;-73
2023/05/21 02:10:26;;;;;;;5.80;4.93;;;14.00;99.90;;;;;;6214285;23;20083;-73
2023/05/21 02:12:52;;;;;;;6.00;4.03;;;14.00;99.90;;;;;;6212298;23;20091;-73
2023/05/21 02:15:18;;;;;;;5.45;4.22;;;14.00;99.90;;;;;;6211090;23;20035;-73
2023/05/21 02:17:45;;;;;;;4.68;4.10;;;14.00;99.90;;;;;;6214804;23;20024;-72
2023/05/21 02:20:11;;;;;;;8.60;5.07;;;13.90;99.90;;;;;;6214990;23;20155;-73
2023/05/21 02:22:38;;;;;;;5.60;4.68;;;13.90;99.90;;;;;;6214246;23;20021;-73
2023/05/21 02:25:06;;;;;;;4.82;4.43;;;13.80;99.90;;;;;;6214815;23;20075;-73
2023/05/21 02:27:33;;;;;;;6.65;4.57;;;13.90;99.90;;;;;;6214003;23;20039;-72
2023/05/21 02:29:59;;;;;;;5.35;4.57;;;13.80;99.90;;;;;;6213457;23;20020;-73
2023/05/21 02:32:25;;;;;;;6.28;4.60;;;13.80;99.90;;;;;;6212706;23;20024;-73
2023/05/21 02:34:51;;;;;;;7.00;4.70;;;13.80;99.90;;;;;;6213780;23;20067;-72
2023/05/21 02:37:18;;;;;;;8.10;5.18;;;13.80;99.90;;;;;;6214640;23;20131;-72
2023/05/21 02:39:44;;;;;;;5.72;4.43;;;13.70;99.90;;;;;;6214721;23;20384;-72
2023/05/21 02:42:09;;;;;;;6.57;5.13;;;13.70;99.90;;;;;;6211169;23;20024;-73
2023/05/21 02:44:35;;;;;;;6.93;5.15;;;13.70;99.90;;;;;;6214773;23;20036;-73
2023/05/21 02:47:00;;;;;;;5.60;4.93;;;13.70;99.90;;;;;;6214319;23;20013;-73
2023/05/21 02:49:26;;;;;;;7.15;4.45;;;13.70;99.90;;;;;;6214896;23;20012;-72
2023/05/21 02:51:52;;;;;;;6.47;5.10;;;13.70;99.90;;;;;;6214627;23;20028;-73
2023/05/21 02:54:17;;;;;;;5.32;4.80;;;13.60;99.90;;;;;;6214905;23;20039;-72
2023/05/21 02:56:43;;;;;;;11.63;5.40;;;13.60;99.90;;;;;;6213749;23;20341;-73
2023/05/21 02:59:08;;;;;;;5.80;5.15;;;13.60;99.90;;;;;;6214380;23;20024;-72
2023/05/21 03:01:34;;;;;;;9.23;5.32;;;13.60;99.90;;;;;;6214643;23;20016;-72
2023/05/21 03:03:59;;;;;;;8.70;5.00;;;13.60;99.90;;;;;;6215807;23;20013;-72
2023/05/21 03:06:25;;;;;;;6.90;4.93;;;13.50;99.90;;;;;;6216382;23;20020;-72
2023/05/21 03:08:51;;;;;;;8.27;4.90;;;13.50;99.90;;;;;;6216829;23;20024;-72
2023/05/21 03:11:18;;;;;;;5.78;5.18;;;13.50;99.90;;;;;;6216411;23;20015;-72
2023/05/21 03:13:43;;;;;;;6.80;5.17;;;13.50;99.90;;;;;;6216049;23;20071;-72
2023/05/21 03:16:09;;;;;;;8.63;5.90;;;13.50;99.90;;;;;;6216206;23;20017;-72
2023/05/21 03:18:35;;;;;;;8.75;5.70;;;13.50;99.90;;;;;;6216662;23;20020;-72
2023/05/21 03:21:00;;;;;;;7.50;5.65;;;13.50;99.90;;;;;;6215956;23;20020;-72
2023/05/21 03:23:26;;;;;;;7.00;5.20;;;13.50;99.90;;;;;;6216489;23;20016;-73
2023/05/21 03:25:52;;;;;;;8.65;5.43;;;13.50;99.90;;;;;;6216000;23;20062;-72
2023/05/21 03:28:17;;;;;;;7.65;5.82;;;13.50;99.90;;;;;;6217674;23;20020;-73
2023/05/21 03:30:48;;;;;;;6.82;5.35;;;13.40;99.90;;;;;;6215575;23;20452;-73
2023/05/21 03:33:15;;;;;;;9.65;5.57;;;13.50;99.90;;;;;;6216683;23;20017;-73
2023/05/21 03:35:40;;;;;;;7.75;5.63;;;13.50;99.90;;;;;;6215203;23;20079;-73
2023/05/21 03:38:06;;;;;;;7.75;5.72;;;13.50;99.90;;;;;;6214729;23;20051;-73
2023/05/21 03:40:31;;;;;;;8.73;5.57;;;13.50;99.90;;;;;;6216145;23;20013;-72
2023/05/21 03:42:57;;;;;;;8.77;5.93;;;13.50;99.90;;;;;;6216330;23;20416;-72
2023/05/21 03:45:23;;;;;;;6.60;5.70;;;13.50;99.90;;;;;;6216192;23;20017;-72
2023/05/21 03:47:48;;;;;;;8.20;5.47;;;13.50;99.90;;;;;;6215207;23;20008;-72
2023/05/21 03:50:14;;;;;;;7.85;6.10;;;13.50;99.90;;;;;;6214109;23;20020;-72
2023/05/21 03:52:40;;;;;;;6.45;5.85;;;13.50;99.90;;;;;;6213979;23;20375;-72
2023/05/21 03:55:06;;;;;;;9.60;5.88;;;13.50;99.90;;;;;;6213994;23;20019;-72
2023/05/21 03:57:31;;;;;;;10.63;6.38;;;13.50;99.90;;;;;;6213594;23;20052;-72
2023/05/21 03:59:57;;;;;;;7.53;5.18;;;13.50;99.90;;;;;;6213938;23;20013;-73
2023/05/21 04:02:26;;;;;;;6.80;5.93;;;13.50;99.90;;;;;;6213948;23;20456;-72
2023/05/21 04:04:52;;;;;;;7.35;5.95;;;13.50;99.90;;;;;;6213299;23;20023;-73
2023/05/21 04:07:18;;;;;;;7.63;6.28;;;13.50;99.90;;;;;;6215365;23;20016;-73
2023/05/21 04:09:45;;;;;;;6.95;5.72;;;13.50;99.90;;;;;;6216014;23;20402;-73
2023/05/21 04:12:11;;;;;;;7.20;6.03;;;13.50;99.90;;;;;;6215169;23;20452;-73
2023/05/21 04:14:37;;;;;;;9.68;6.22;;;13.50;99.90;;;;;;6215435;23;20019;-72
2023/05/21 04:17:06;;;;;;;8.25;6.25;;;13.50;99.90;;;;;;6214007;23;20021;-73
2023/05/21 04:19:31;;;;;;;10.27;6.30;;;13.50;99.90;;;;;;6213711;23;20016;-73
2023/05/21 04:21:57;;;;;;;10.73;6.70;;;13.60;99.90;;;;;;6209739;23;20028;-73
2023/05/21 04:24:23;;;;;;;7.22;6.43;;;13.60;99.90;;;;;;6210411;23;20016;-73
2023/05/21 04:26:49;;;;;;;7.60;6.30;;;13.60;99.90;;;;;;6212588;23;20052;-73
2023/05/21 04:29:20;;;;;;;11.60;6.75;;;13.60;99.90;;;;;;6213671;23;20071;-74
2023/05/21 04:31:47;;;;;;;7.93;6.30;;;13.60;99.90;;;;;;6212123;23;20030;-73
2023/05/21 04:34:12;;;;;;;8.13;6.50;;;13.60;99.90;;;;;;6211881;23;20127;-73
2023/05/21 04:36:38;;;;;;;7.25;5.93;;;13.60;99.90;;;;;;6211490;23;20322;-73
2023/05/21 04:39:05;;;;;;;9.65;6.65;;;13.60;99.90;;;;;;6210825;23;20067;-73
2023/05/21 04:41:30;;;;;;;9.07;6.68;;;13.60;99.90;;;;;;6211617;23;20016;-73
2023/05/21 04:43:57;;;;;;;10.75;6.45;;;13.60;99.90;;;;;;6212466;23;20008;-72
2023/05/21 04:46:26;;;;;;;8.43;6.63;;;13.60;99.90;;;;;;6211405;23;20020;-73
2023/05/21 04:48:53;;;;;;;8.23;6.50;;;13.60;99.90;;;;;;6211025;23;20017;-72
2023/05/21 04:51:20;;;;;;;7.38;6.00;;;13.60;99.90;;;;;;6208719;23;20024;-72
2023/05/21 04:53:46;;;;;;;10.30;6.33;;;13.60;99.90;;;;;;6210268;23;20009;-72
2023/05/21 04:56:13;;;;;;;8.27;5.60;;;13.60;99.90;;;;;;6208905;23;20009;-72
2023/05/21 04:58:39;;;;;;;10.73;6.40;;;13.60;99.90;;;;;;6211264;23;20055;-72
2023/05/21 05:01:05;;;;;;;8.55;6.47;;;13.60;99.90;;;;;;6185029;23;20314;-72
2023/05/21 05:03:30;;;;;;;9.70;6.82;;;13.60;99.90;;;;;;6184999;23;20020;-72
2023/05/21 05:05:56;;;;;;;9.82;7.00;;;13.60;99.90;;;;;;6211392;23;20013;-72
2023/05/21 05:08:22;;;;;;;8.77;6.35;;;13.60;99.90;;;;;;6211659;23;20017;-72
2023/05/21 05:10:47;;;;;;;12.55;6.53;;;13.70;99.90;;;;;;6210931;23;20555;-73
2023/05/21 05:13:13;;;;;;;10.00;6.57;;;13.70;99.90;;;;;;6209411;23;20067;-72
2023/05/21 05:15:39;;;;;;;7.82;6.18;;;13.60;99.90;;;;;;6212783;23;20008;-73
2023/05/21 05:18:07;;;;;;;7.20;6.05;;;13.60;99.90;;;;;;6213607;23;20147;-73
2023/05/21 05:20:32;;;;;;;9.15;5.93;;;13.70;99.90;;;;;;6186323;23;20393;-73
2023/05/21 05:22:58;;;;;;;6.82;5.63;;;13.70;99.90;;;;;;6212914;23;20020;-73
2023/05/21 05:25:24;;;;;;;9.43;6.10;;;13.70;99.90;;;;;;6213708;23;20023;-74
2023/05/21 05:27:49;;;;;;;8.80;6.28;;;13.70;99.90;;;;;;6213222;23;20112;-72
2023/05/21 05:30:15;;;;;;;9.38;6.47;;;13.80;99.90;;;;;;6211954;23;20030;-72
2023/05/21 05:32:40;;;;;;;10.55;6.43;;;13.80;99.90;;;;;;6213069;23;20075;-72
2023/05/21 05:35:07;;;;;;;7.45;6.20;;;13.80;99.90;;;;;;6213124;23;20017;-73
2023/05/21 05:37:32;;;;;;;6.95;5.70;;;13.90;99.90;;;;;;6212906;23;20028;-73
2023/05/21 05:39:58;;;;;;;8.48;5.75;;;13.90;99.90;;;;;;6213169;23;20012;-73
2023/05/21 05:42:24;;;;;;;6.82;5.25;;;13.90;99.90;;;;;;6213733;23;20317;-73
2023/05/21 05:44:50;;;;;;;9.35;5.70;;;;;;;;;;6213301;23;20441;-75
2023/05/21 05:47:16;;;;;;;8.48;5.63;;;13.90;99.90;;;;;;6212039;23;20358;-74
2023/05/21 05:49:41;;;;;;;8.60;5.88;;;13.90;99.90;;;;;;6212742;23;20012;-73
2023/05/21 05:52:07;;;;;;;9.68;5.55;;;13.90;99.90;;;;;;6213062;23;20441;-73
2023/05/21 05:54:33;;;;;;;9.18;5.90;;;13.90;99.90;;;;;;6214686;23;20456;-72
2023/05/21 05:56:59;;;;;;;7.93;5.75;;;;;;;;;;6214936;23;20043;-73
2023/05/21 05:59:24;;;;;;;6.15;5.10;;;14.00;99.90;;;;;;6212608;23;20013;-73
2023/05/21 06:01:50;;;;;;;8.23;6.00;;;13.90;99.90;;;;;;6214875;23;20522;-72
2023/05/21 06:04:16;;;;;;;7.88;5.90;;;13.90;99.90;;;;;;6214419;23;20013;-73
2023/05/21 06:06:41;;;;;;;8.85;5.30;;;14.00;99.90;;;;;;6214628;23;20061;-73
2023/05/21 06:09:07;;;;;;;9.25;5.85;;;14.00;99.90;;;;;;6215125;23;20498;-73
2023/05/21 06:11:32;;;;;;;14.25;5.72;;;14.10;99.90;;;;;;6214447;23;20400;-73
2023/05/21 06:14:00;;;;;;;9.50;5.68;;;14.10;99.90;;;;;;6215038;23;20041;-74
2023/05/21 06:16:26;;;;;;;8.77;5.25;;;14.20;99.90;;;;;;6213575;23;20013;-74
2023/05/21 06:18:52;;;;;;;8.45;5.47;;;14.20;99.90;;;;;;6212784;23;20123;-74
2023/05/21 06:21:18;;;;;;;6.90;5.18;;;14.20;99.90;;;;;;6213652;23;20441;-74
2023/05/21 06:23:43;;;;;;;7.82;5.20;;;14.30;99.90;;;;;;6214827;23;20089;-74
2023/05/21 06:26:09;;;;;;;12.95;5.15;;;14.30;99.90;;;;;;6215081;23;20349;-75
2023/05/21 06:28:35;;;;;;;6.03;5.15;;;14.40;99.90;;;;;;6214757;23;20021;-73
2023/05/21 06:31:00;;;;;;;6.60;4.68;;;14.60;99.90;;;;;;6212545;23;20009;-74
2023/05/21 06:33:26;;;;;;;8.43;5.28;;;14.80;99.90;;;;;;6214994;23;20087;-73
2023/05/21 06:35:52;;;;;;;7.85;4.90;;;14.60;99.90;;;;;;6214064;23;20066;-73
2023/05/21 06:38:17;;;;;;;9.93;5.38;;;14.80;99.90;;;;;;6215573;23;20024;-73
2023/05/21 06:40:46;;;;;;;8.13;5.47;;;14.70;99.90;;;;;;6215695;23;20368;-73
2023/05/21 06:43:11;;;;;;;9.68;4.75;;;14.80;99.90;;;;;;6216792;23;20033;-73
2023/05/21 06:45:37;;;;;;;6.07;4.90;;;14.80;99.90;;;;;;6215972;23;20016;-73
2023/05/21 06:48:03;;;;;;;8.50;5.00;;;14.90;99.90;;;;;;6216257;23;20016;-74
2023/05/21 06:50:29;;;;;;;10.60;5.15;;;15.00;99.90;;;;;;6216857;23;20012;-74
2023/05/21 06:52:54;;;;;;;9.02;5.05;;;14.90;99.90;;;;;;6216294;23;20449;-74
2023/05/21 06:55:20;;;;;;;6.28;4.93;;;15.00;99.90;;;;;;6188290;23;20016;-75
2023/05/21 06:57:45;;;;;;;9.52;5.03;;;15.00;99.90;;;;;;6187460;23;20043;-75
2023/05/21 07:00:12;;;;;;;6.88;5.30;;;15.00;99.90;;;;;;6215227;23;20071;-75
2023/05/21 07:02:37;;;;;;;6.13;4.45;;;15.10;99.90;;;;;;6185170;23;20028;-74
2023/05/21 07:05:03;;;;;;;6.32;4.65;;;15.10;99.90;;;;;;6212706;23;20016;-75
2023/05/21 07:07:29;;;;;;;7.22;4.63;;;15.20;99.90;;;;;;6216448;23;20017;-74
2023/05/21 07:09:54;;;;;;;7.85;5.30;;;15.20;99.90;;;;;;6216702;23;20013;-74
2023/05/21 07:12:20;;;;;;;7.63;5.20;;;15.20;99.90;;;;;;6216404;23;20059;-74
2023/05/21 07:14:45;;;;;;;7.43;4.78;;;15.20;99.90;;;;;;6216005;23;20008;-75
2023/05/21 07:17:11;;;;;;;8.50;4.72;;;;;;;;;;6215874;23;20028;-75
2023/05/21 07:19:39;;;;;;;8.50;4.75;;;;;;;;;;6189627;23;20405;-75
2023/05/21 07:22:05;;;;;;;7.95;4.55;;;15.40;99.90;;;;;;6216801;23;20012;-75
2023/05/21 07:24:31;;;;;;;4.90;4.40;;;15.60;99.90;;;;;;6189789;23;20124;-74
2023/05/21 07:26:57;;;;;;;5.85;4.93;;;;;;;;;;6216132;23;20016;-73
2023/05/21 07:29:22;;;;;;;7.57;4.90;;;15.70;99.90;;;;;;6216368;23;20335;-73
2023/05/21 07:31:48;;;;;;;7.15;4.90;;;15.80;99.90;;;;;;6216149;23;20012;-74
2023/05/21 07:34:15;;;;;;;8.43;4.38;;;15.80;99.90;;;;;;6212262;23;20021;-73
2023/05/21 07:36:41;;;;;;;6.82;4.18;;;15.90;99.90;;;;;;6188648;23;20048;-73
2023/05/21 07:39:06;;;;;;;8.70;5.25;;;15.80;99.90;;;;;;6215417;23;20017;-74
2023/05/21 07:41:32;;;;;;;6.32;4.53;;;16.00;99.90;;;;;;6214823;23;20013;-73
2023/05/21 07:43:57;;;;;;;7.85;4.85;;;16.00;99.90;;;;;;6212450;23;20322;-73
2023/05/21 07:46:23;;;;;;;7.38;4.63;;;16.00;99.90;;;;;;6214518;23;20074;-74
2023/05/21 07:48:49;;;;;;;8.02;4.75;;;16.00;99.90;;;;;;6189266;23;20024;-73
2023/05/21 07:51:15;;;;;;;7.03;5.10;;;16.20;99.90;;;;;;6215272;23;20012;-74
2023/05/21 07:53:41;;;;;;;8.57;4.85;;;16.30;99.90;;;;;;6164134;23;20024;-73
2023/05/21 07:56:06;;;;;;;10.55;4.85;;;16.50;99.90;;;;;;6216217;23;20020;-74
2023/05/21 07:58:33;;;;;;;8.57;5.03;;;16.60;99.90;;;;;;6215788;23;20044;-73
2023/05/21 08:00:59;;;;;;;8.15;4.95;;;16.50;99.90;;;;;;6215758;23;20509;-73
2023/05/21 08:03:26;;;;;;;7.47;4.97;;;16.70;99.90;;;;;;6189089;23;20051;-73
2023/05/21 08:05:52;;;;;;;6.20;4.72;;;16.80;99.90;;;;;;6214009;23;20036;-73
2023/05/21 08:08:18;;;;;;;6.63;5.13;;;16.90;99.90;;;;;;6208659;23;20420;-74
2023/05/21 08:10:44;;;;;;;7.32;4.95;;;17.10;99.90;;;;;;6213015;23;20341;-74
2023/05/21 08:13:15;;;;;;;7.18;4.85;;;17.30;99.90;;;;;;6216394;23;20008;-74
2023/05/21 08:15:41;;;;;;;5.30;4.65;;;17.40;99.90;;;;;;6216166;23;20040;-73
2023/05/21 08:18:06;;;;;;;6.25;4.93;;;17.70;99.90;;;;;;6216022;23;20020;-73
2023/05/21 08:20:32;;;;;;;8.52;5.30;;;17.90;99.90;;;;;;6215862;23;20038;-73
2023/05/21 08:22:59;;;;;;;7.15;5.00;;;18.00;99.90;;;;;;6215283;23;20337;-73
2023/05/21 08:25:28;;;;;;;10.57;5.40;;;18.40;99.90;;;;;;6215689;23;20040;-73
2023/05/21 08:27:54;;;;;;;6.07;4.82;;;18.90;99.90;;;;;;6214652;23;20456;-74
2023/05/21 08:30:20;;;;;;;7.25;4.75;;;18.90;99.90;;;;;;6187265;23;20468;-74
2023/05/21 08:32:46;;;;;;;6.65;3.58;;;19.00;99.90;;;;;;6212485;23;20017;-74
2023/05/21 08:35:12;;;;;;;7.15;4.45;;;18.90;99.90;;;;;;6162943;23;20013;-74
2023/05/21 08:37:38;;;;;;;7.28;5.22;;;18.80;99.90;;;;;;6215715;23;20016;-73
2023/05/21 08:40:05;;;;;;;7.63;5.32;;;18.90;99.90;;;;;;6215504;23;20070;-73
2023/05/21 08:42:43;;;;;;;9.55;5.70;;;18.80;99.90;;;;;;6188259;23;20021;-74
2023/05/21 08:45:12;;;;;;;6.47;5.80;;;18.90;99.90;;;;;;6215421;23;20050;-74
2023/05/21 08:47:40;;;;;;;7.47;5.93;;;18.90;99.90;;;;;;6215495;23;20013;-73
2023/05/21 08:50:12;;;;;;;9.20;5.93;;;18.90;99.90;;;;;;6214686;23;20317;-74
2023/05/21 08:52:38;;;;;;;9.52;5.85;;;18.80;99.90;;;;;;6215548;23;20048;-74
2023/05/21 08:55:04;;;;;;;8.82;5.68;;;19.00;99.90;;;;;;6215436;23;20074;-74
2023/05/21 08:57:31;;;;;;;7.33;5.87;;;19.00;99.90;;;;;;6215391;23;20013;-74
2023/05/21 08:59:57;;;;;;;6.43;5.70;;;19.00;99.90;;;;;;6215567;23;20236;-73
2023/05/21 09:02:23;;;;;;;8.15;5.78;;;19.30;99.90;;;;;;6214985;23;20099;-73
2023/05/21 09:04:55;;;;;;;6.85;5.95;;;19.30;99.90;;;;;;6215543;23;20020;-73
2023/05/21 09:07:27;;;;;;;7.68;5.60;;;19.20;99.90;;;;;;6214040;23;20020;-74
2023/05/21 09:10:08;;;;;;;8.40;5.80;;;19.30;99.90;;;;;;6214280;23;20052;-73
2023/05/21 09:12:35;;;;;;;9.35;6.00;;;19.30;99.90;;;;;;6211027;23;20024;-74
2023/05/21 09:15:01;;;;;;;9.95;6.28;;;19.50;99.90;;;;;;6213467;23;20016;-75
2023/05/21 09:17:26;;;;;;;9.30;6.10;;;19.40;99.90;;;;;;6215119;23;20016;-75
2023/05/21 09:20:12;;;;;;;8.65;5.32;;;19.50;99.90;;;;;;6215039;23;20017;-74
2023/05/21 09:22:41;;;;;;;7.22;5.70;;;19.40;99.90;;;;;;6215356;23;20475;-75
2023/05/21 09:25:09;;;;;;;6.72;5.05;;;19.50;99.90;;;;;;6214722;23;20012;-76
2023/05/21 09:27:34;;;;;;;6.65;5.70;;;19.20;99.90;;;;;;6215072;23;20020;-73
2023/05/21 09:30:07;;;;;;;8.00;6.82;;;19.20;99.90;;;;;;6214897;23;20021;-74
2023/05/21 09:32:33;;;;;;;8.27;6.10;;;;;;;;;;6215071;23;20108;-73
2023/05/21 09:35:06;;;;;;;9.35;5.78;;;19.30;99.90;;;;;;6215140;23;20052;-74
2023/05/21 09:37:36;;;;;;;7.30;6.03;;;19.50;99.90;;;;;;6213533;23;20017;-73
2023/05/21 09:40:09;;;;;;;8.80;6.20;;;19.40;99.90;;;;;;6212404;23;20066;-73
2023/05/21 09:42:35;;;;;;;9.85;7.18;;;19.50;99.90;;;;;;6212917;23;20133;-73
2023/05/21 09:45:01;;;;;;;6.97;6.07;;;19.40;99.90;;;;;;6212066;23;20024;-76
2023/05/21 09:47:26;;;;;;;9.13;6.35;;;19.60;99.90;;;;;;6212689;23;20157;-73
2023/05/21 09:49:56;;;;;;;8.75;6.35;;;19.60;99.90;;;;;;6211819;23;20020;-73
2023/05/21 09:52:29;;;;;;;8.23;6.43;;;19.50;99.90;;;;;;6208629;23;20329;-73
2023/05/21 09:54:54;;;;;;;8.10;5.90;;;19.80;99.90;;;;;;6210523;23;20016;-73
2023/05/21 09:57:24;;;;;;;9.57;6.68;;;19.70;99.90;;;;;;6208578;23;20017;-72
2023/05/21 09:59:50;;;;;;;7.25;6.55;;;19.80;99.90;;;;;;6210624;23;20009;-72
2023/05/21 10:02:19;;;;;;;7.00;6.30;;;19.90;99.90;;;;;;6210430;23;20570;-73
2023/05/21 10:04:48;;;;;;;7.22;6.50;;;20.10;99.90;;;;;;6212791;23;20106;-72
2023/05/21 10:07:25;;;;;;;8.85;6.43;;;20.30;99.90;;;;;;6214382;23;20019;-72
2023/05/21 10:09:57;;;;;;;10.27;6.50;;;20.30;99.90;;;;;;6214021;23;20123;-71
2023/05/21 10:12:26;;;;;;;8.70;7.10;;;20.80;99.90;;;;;;6213272;23;20017;-72
2023/05/21 10:15:00;;;;;;;8.80;7.30;;;20.60;99.90;;;;;;6211699;23;20008;-73
2023/05/21 10:17:28;;;;;;;8.57;6.22;;;20.60;99.90;;;;;;6211340;23;20511;-73
2023/05/21 10:19:55;;;;;;;8.57;7.35;;;20.70;99.90;;;;;;6212705;23;20025;-72
2023/05/21 10:22:23;;;;;;;12.60;7.43;;;20.80;99.90;;;;;;6208854;23;20013;-74
2023/05/21 10:24:50;;;;;;;10.40;8.18;;;21.20;99.90;;;;;;6215054;23;20136;-75
2023/05/21 10:27:17;;;;;;;9.73;7.70;;;21.10;99.90;;;;;;6214248;23;20016;-77
2023/05/21 10:29:44;;;;;;;14.00;8.60;;;20.80;99.90;;;;;;6215545;23;20017;-74
2023/05/21 10:32:13;;;;;;;9.73;8.77;;;20.60;99.90;;;;;;6210940;23;20078;-74
2023/05/21 10:34:40;;;;;;;11.48;8.65;;;20.60;99.90;;;;;;6211546;23;20019;-74
2023/05/21 10:37:08;;;;;;;9.70;8.35;;;20.70;99.90;;;;;;6213662;23;20012;-74
2023/05/21 10:39:34;;;;;;;12.73;8.85;;;21.10;99.90;;;;;;6212735;23;20020;-74
2023/05/21 10:42:08;;;;;;;11.48;9.70;;;20.70;99.90;;;;;;6213707;23;20096;-73
2023/05/21 10:44:56;;;;;;;9.82;8.82;;;20.90;99.90;;;;;;6214004;23;20024;-73
2023/05/21 10:47:43;;;;;;;12.00;9.35;;;20.90;99.90;;;;;;6211914;23;20017;-73
2023/05/21 10:50:44;;;;;;;10.68;9.57;;;20.80;99.90;;;;;;6213587;23;20017;-74
2023/05/21 10:53:21;;;;;;;11.02;9.93;;;21.00;99.90;;;;;;6212691;23;20024;-74
2023/05/21 10:56:03;;;;;;;12.77;10.02;;;21.00;99.90;;;;;;6185804;23;20027;-74
2023/05/21 10:58:55;;;;;;;12.90;10.15;;;21.30;99.90;;;;;;6212733;23;20012;-74
2023/05/21 11:01:21;;;;;;;14.10;10.10;;;21.20;99.90;;;;;;6214253;23;20024;-74
2023/05/21 11:03:49;;;;;;;12.25;9.68;;;21.20;99.90;;;;;;6214547;23;20013;-74
2023/05/21 11:06:25;;;;;;;12.15;10.05;;;21.10;99.90;;;;;;6212550;23;20455;-73
2023/05/21 11:08:52;;;;;;;13.05;11.65;;;21.30;99.90;;;;;;6212226;23;20013;-74
2023/05/21 11:11:50;;;;;;;13.90;12.07;;;21.90;99.90;;;;;;6184276;23;20421;-74
2023/05/21 11:14:39;;;;;;;11.75;9.82;;;21.80;99.90;;;;;;6211292;23;20357;-74
2023/05/21 11:17:07;;;;;;;14.48;11.35;;;21.80;99.90;;;;;;6191786;23;20016;-74
2023/05/21 11:19:46;;;;;;;13.27;11.50;;;21.90;99.90;;;;;;6213555;23;20083;-73
2023/05/21 11:22:24;;;;;;;13.90;12.32;;;22.10;99.90;;;;;;6212795;23;20012;-73
2023/05/21 11:24:50;;;;;;;15.50;12.95;;;22.20;99.90;;;;;;6212972;23;20044;-73
2023/05/21 11:27:36;;;;;;;13.73;12.27;;;22.30;99.90;;;;;;6213377;23;20012;-73
2023/05/21 11:30:22;;;;;;;14.30;11.45;;;22.40;99.90;;;;;;6188474;23;20435;-73
2023/05/21 11:33:06;;;;;;;12.27;11.00;;;22.50;99.90;;;;;;6212268;23;20021;-72
2023/05/21 11:35:55;;;;;;;15.45;12.15;;;22.50;99.90;;;;;;6213517;23;20024;-73
2023/05/21 11:38:21;;;;;;;14.73;12.77;;;22.20;99.90;;;;;;6213005;23;20013;-73
2023/05/21 11:40:53;;;;;;;15.13;13.57;;;22.40;99.90;;;;;;6214413;23;20013;-72
2023/05/21 11:43:19;;;;;;;15.60;12.82;;;22.50;99.90;;;;;;6214182;23;20021;-73
2023/05/21 11:45:46;;;;;;;15.32;13.45;;;22.40;99.90;;;;;;6214345;23;20019;-73
2023/05/21 11:48:15;;;;;;;14.82;13.23;;;22.50;99.90;;;;;;6212715;23;20013;-72
2023/05/21 11:50:43;;;;;;;15.40;12.73;;;22.60;99.90;;;;;;6213802;23;20070;-72
2023/05/21 11:53:11;;;;;;;15.57;13.45;;;22.50;99.90;;;;;;6213853;23;20012;-72
2023/05/21 11:55:46;;;;;;;17.48;13.40;;;22.60;99.90;;;;;;6187246;23;20025;-72
2023/05/21 11:58:13;;;;;;;14.90;12.93;;;22.70;99.90;;;;;;6210996;23;20080;-73
2023/05/21 12:00:39;;;;;;;14.50;13.10;;;22.80;99.90;;;;;;6212286;23;20013;-73
2023/05/21 12:03:06;;;;;;;15.70;13.35;;;23.10;99.90;;;;;;6213180;23;20465;-73
2023/05/21 12:05:44;;;;;;;15.15;12.48;;;22.80;99.90;;;;;;6213657;23;20063;-73
2023/05/21 12:08:09;;;;;;;17.17;13.18;;;22.50;99.90;;;;;;6211076;23;20329;-73
2023/05/21 12:10:38;;;;;;;13.75;11.05;;;22.60;99.90;;;;;;6213594;23;20367;-73
2023/05/21 12:13:04;;;;;;;16.98;13.93;;;22.40;99.90;;;;;;6212874;23;20091;-73
2023/05/21 12:15:29;;;;;;;14.18;12.57;;;22.60;99.90;;;;;;6213993;23;20040;-73
2023/05/21 12:17:55;;;;;;;15.40;13.80;;;22.90;99.90;;;;;;6212231;23;20016;-73
2023/05/21 12:20:22;;;;;;;14.77;13.38;;;22.90;99.90;;;;;;6210259;23;20127;-73
2023/05/21 12:22:48;;;;;;;16.67;13.95;;;22.90;99.90;;;;;;6211417;23;20035;-73
2023/05/21 12:25:14;;;;;;;19.65;14.57;;;23.20;99.90;;;;;;6211488;23;20013;-72
2023/05/21 12:27:40;;;;;;;16.17;13.10;;;23.30;99.90;;;;;;6211058;23;20433;-73
2023/05/21 12:30:07;;;;;;;15.27;13.73;;;23.10;99.90;;;;;;6209913;23;20020;-73
2023/05/21 12:32:32;;;;;;;15.43;13.45;;;22.90;99.90;;;;;;6211533;23;20009;-73
2023/05/21 12:34:58;;;;;;;17.30;13.70;;;23.30;99.90;;;;;;6211651;23;20062;-74
2023/05/21 12:37:26;;;;;;;15.75;14.05;;;23.40;99.90;;;;;;6210242;23;20020;-74
2023/05/21 12:39:56;;;;;;;;;;;23.70;99.90;;;;;;6185334;23;20441;-72
2023/05/21 12:42:30;;;;;;;16.65;14.05;;;23.50;99.90;;;;;;6210877;23;20051;-72
2023/05/21 12:44:56;;;;;;;16.73;14.93;;;23.60;99.90;;;;;;6211755;23;20388;-72
2023/05/21 12:47:25;;;;;;;17.58;13.52;;;23.60;99.90;;;;;;6210323;23;20344;-72